Time,TemperatureF,DewpointF,PressureIn,WindDirection,WindDirectionDegrees,WindSpeedMPH,WindSpeedGustMPH,Humidity,HourlyPrecipIn,Conditions,Clouds,dailyrainin,SoftwareType,DateUTC
2013-04-28 00:11:00,48.3,30.0,30.05,WNW,291,2.0,7.0,49,0.00,,,0.00,weatherlink.com 1.10,2013-04-28 07:11:00,
2013-04-28 00:26:00,47.4,30.0,30.05,WNW,294,3.0,6.0,51,0.00,,,0.00,weatherlink.com 1.10,2013-04-28 07:26:00,
2013-04-28 00:41:00,46.7,29.0,30.05,WNW,302,2.0,4.0,51,0.00,,,0.00,weatherlink.com 1.10,2013-04-28 07:41:00,
2013-04-28 00:56:00,46.2,29.0,30.05,WSW,250,1.0,4.0,51,0.00,,,0.00,weatherlink.com 1.10,2013-04-28 07:56:00,
2013-04-28 01:11:00,45.8,28.0,30.05,WNW,297,3.0,4.0,51,0.00,,,0.00,weatherlink.com 1.10,2013-04-28 08:11:00,
2013-04-28 01:26:00,45.7,28.0,30.05,NNW,338,2.0,7.0,51,0.00,,,0.00,weatherlink.com 1.10,2013-04-28 08:26:00,
2013-04-28 01:41:00,45.7,28.0,30.05,West,267,0.0,5.0,50,0.00,,,0.00,weatherlink.com 1.10,2013-04-28 08:41:00,
2013-04-28 01:57:00,45.1,28.0,30.05,WNW,292,1.0,5.0,51,0.00,,,0.00,weatherlink.com 1.10,2013-04-28 08:57:00,
2013-04-28 02:12:00,44.5,28.0,30.05,WNW,293,0.0,4.0,52,0.00,,,0.00,weatherlink.com 1.10,2013-04-28 09:12:00,
2013-04-28 02:27:00,43.9,28.0,30.05,WNW,300,2.0,4.0,55,0.00,,,0.00,weatherlink.com 1.10,2013-04-28 09:27:00,
2013-04-28 02:42:00,43.3,29.0,30.06,NNW,341,0.0,5.0,57,0.00,,,0.00,weatherlink.com 1.10,2013-04-28 09:42:00,
2013-04-28 02:57:00,42.7,30.0,30.05,SSE,152,0.0,2.0,60,0.00,,,0.00,weatherlink.com 1.10,2013-04-28 09:57:00,
2013-04-28 03:12:00,42.4,30.0,30.05,SSE,158,1.0,3.0,61,0.00,,,0.00,weatherlink.com 1.10,2013-04-28 10:12:00,
2013-04-28 03:27:00,42.3,30.0,30.05,South,184,2.0,4.0,63,0.00,,,0.00,weatherlink.com 1.10,2013-04-28 10:27:00,
2013-04-28 03:42:00,42.3,31.0,30.04,WSW,241,2.0,5.0,64,0.00,,,0.00,weatherlink.com 1.10,2013-04-28 10:42:00,
2013-04-28 03:57:00,42.0,31.0,30.05,SE,139,2.0,4.0,64,0.00,,,0.00,weatherlink.com 1.10,2013-04-28 10:57:00,
2013-04-28 04:12:00,42.1,31.0,30.05,WSW,257,3.0,6.0,64,0.00,,,0.00,weatherlink.com 1.10,2013-04-28 11:12:00,
2013-04-28 04:27:00,42.2,30.0,30.05,WSW,252,1.0,4.0,63,0.00,,,0.00,weatherlink.com 1.10,2013-04-28 11:27:00,
2013-04-28 04:42:00,42.0,30.0,30.05,West,262,0.0,2.0,63,0.00,,,0.00,weatherlink.com 1.10,2013-04-28 11:42:00,
2013-04-28 04:57:00,41.4,30.0,30.05,North,9,0.0,1.0,63,0.00,,,0.00,weatherlink.com 1.10,2013-04-28 11:57:00,
2013-04-28 05:12:00,41.3,29.0,30.05,South,187,1.0,3.0,62,0.00,,,0.00,weatherlink.com 1.10,2013-04-28 12:12:00,
2013-04-28 05:27:00,41.7,29.0,30.05,SSW,208,1.0,8.0,60,0.00,,,0.00,weatherlink.com 1.10,2013-04-28 12:27:00,
2013-04-28 05:42:00,41.7,28.0,30.05,SSW,207,2.0,6.0,59,0.00,,,0.00,weatherlink.com 1.10,2013-04-28 12:42:00,
2013-04-28 05:57:00,41.3,29.0,30.05,WSW,238,1.0,4.0,61,0.00,,,0.00,weatherlink.com 1.10,2013-04-28 12:57:00,
2013-04-28 06:12:00,41.2,29.0,30.05,SW,233,0.0,5.0,62,0.00,,,0.00,weatherlink.com 1.10,2013-04-28 13:12:00,
2013-04-28 06:27:00,41.0,30.0,30.05,SE,146,0.0,1.0,64,0.00,,,0.00,weatherlink.com 1.10,2013-04-28 13:27:00,
2013-04-28 06:42:00,41.3,30.0,30.05,SSW,195,1.0,2.0,65,0.00,,,0.00,weatherlink.com 1.10,2013-04-28 13:42:00,
2013-04-28 06:57:00,41.2,31.0,30.06,SSE,155,0.0,1.0,66,0.00,,,0.00,weatherlink.com 1.10,2013-04-28 13:57:00,
2013-04-28 07:12:00,41.5,31.0,30.06,NNW,338,0.0,2.0,67,0.00,,,0.00,weatherlink.com 1.10,2013-04-28 14:12:00,
2013-04-28 07:27:00,42.1,33.0,30.06,SE,139,1.0,3.0,69,0.00,,,0.00,weatherlink.com 1.10,2013-04-28 14:27:00,
2013-04-28 07:42:00,43.1,33.0,30.07,WSW,258,1.0,7.0,68,0.00,,,0.00,weatherlink.com 1.10,2013-04-28 14:42:00,
2013-04-28 07:57:00,43.6,34.0,30.08,West,280,1.0,4.0,70,0.00,,,0.00,weatherlink.com 1.10,2013-04-28 14:57:00,
2013-04-28 08:12:00,43.9,34.0,30.07,WSW,253,3.0,7.0,69,0.00,,,0.00,weatherlink.com 1.10,2013-04-28 15:12:00,
2013-04-28 08:27:00,43.8,35.0,30.08,WNW,293,1.0,7.0,70,0.00,,,0.00,weatherlink.com 1.10,2013-04-28 15:27:00,
2013-04-28 08:42:00,44.1,35.0,30.08,West,277,2.0,5.0,70,0.00,,,0.00,weatherlink.com 1.10,2013-04-28 15:42:00,
2013-04-28 08:57:00,45.1,36.0,30.08,WNW,302,1.0,6.0,70,0.00,,,0.00,weatherlink.com 1.10,2013-04-28 15:57:00,
2013-04-28 09:12:00,45.3,36.0,30.09,NW,307,5.0,7.0,69,0.00,,,0.00,weatherlink.com 1.10,2013-04-28 16:12:00,
2013-04-28 09:28:00,46.2,36.0,30.08,West,266,4.0,6.0,68,0.00,,,0.00,weatherlink.com 1.10,2013-04-28 16:28:00,
2013-04-28 09:43:00,47.0,36.0,30.08,WNW,295,8.0,10.0,66,0.00,,,0.00,weatherlink.com 1.10,2013-04-28 16:43:00,
2013-04-28 09:58:00,46.9,36.0,30.08,WSW,238,1.0,7.0,66,0.00,,,0.00,weatherlink.com 1.10,2013-04-28 16:58:00,
2013-04-28 10:13:00,47.5,37.0,30.09,West,281,8.0,8.0,66,0.00,,,0.00,weatherlink.com 1.10,2013-04-28 17:13:00,
2013-04-28 10:28:00,47.9,36.0,30.09,WNW,300,2.0,7.0,64,0.00,,,0.00,weatherlink.com 1.10,2013-04-28 17:28:00,
2013-04-28 10:43:00,48.2,36.0,30.09,ENE,72,2.0,5.0,64,0.00,,,0.00,weatherlink.com 1.10,2013-04-28 17:43:00,
2013-04-28 10:58:00,49.8,36.0,30.09,WNW,296,2.0,7.0,60,0.00,,,0.00,weatherlink.com 1.10,2013-04-28 17:58:00,
2013-04-28 11:13:00,51.2,35.0,30.09,NNE,27,4.0,6.0,54,0.00,,,0.00,weatherlink.com 1.10,2013-04-28 18:13:00,
2013-04-28 11:28:00,51.4,35.0,30.09,WNW,297,8.0,11.0,54,0.00,,,0.00,weatherlink.com 1.10,2013-04-28 18:28:00,
2013-04-28 11:43:00,51.4,35.0,30.09,SW,219,2.0,6.0,53,0.00,,,0.00,weatherlink.com 1.10,2013-04-28 18:43:00,
2013-04-28 11:58:00,52.7,34.0,30.08,West,271,4.0,11.0,50,0.00,,,0.00,weatherlink.com 1.10,2013-04-28 18:58:00,
2013-04-28 12:13:00,52.4,34.0,30.08,West,261,4.0,9.0,49,0.00,,,0.00,weatherlink.com 1.10,2013-04-28 19:13:00,
2013-04-28 12:28:00,53.4,33.0,30.08,WSW,246,4.0,11.0,46,0.00,,,0.00,weatherlink.com 1.10,2013-04-28 19:28:00,
2013-04-28 12:43:00,52.8,34.0,30.08,SSE,155,3.0,9.0,49,0.00,,,0.00,weatherlink.com 1.10,2013-04-28 19:43:00,
2013-04-28 12:58:00,53.7,34.0,30.07,WNW,287,4.0,9.0,48,0.00,,,0.00,weatherlink.com 1.10,2013-04-28 19:58:00,
2013-04-28 13:13:00,53.8,32.0,30.08,South,170,1.0,14.0,43,0.00,,,0.00,weatherlink.com 1.10,2013-04-28 20:13:00,
2013-04-28 13:28:00,54.2,30.0,30.08,West,262,1.0,10.0,39,0.00,,,0.00,weatherlink.com 1.10,2013-04-28 20:28:00,
2013-04-28 13:43:00,54.6,31.0,30.07,WNW,290,4.0,8.0,41,0.00,,,0.00,weatherlink.com 1.10,2013-04-28 20:43:00,
2013-04-28 13:58:00,55.6,29.0,30.07,SW,235,6.0,11.0,37,0.00,,,0.00,weatherlink.com 1.10,2013-04-28 20:58:00,
2013-04-28 14:13:00,56.0,29.0,30.06,West,274,9.0,12.0,36,0.00,,,0.00,weatherlink.com 1.10,2013-04-28 21:13:00,
2013-04-28 14:28:00,56.0,29.0,30.06,West,259,7.0,11.0,36,0.00,,,0.00,weatherlink.com 1.10,2013-04-28 21:28:00,
2013-04-28 14:43:00,56.4,30.0,30.05,WNW,291,3.0,10.0,36,0.00,,,0.00,weatherlink.com 1.10,2013-04-28 21:43:00,
2013-04-28 14:58:00,56.9,31.0,30.05,West,281,10.0,13.0,38,0.00,,,0.00,weatherlink.com 1.10,2013-04-28 21:58:00,
2013-04-28 15:13:00,56.6,29.0,30.04,West,280,4.0,13.0,35,0.00,,,0.00,weatherlink.com 1.10,2013-04-28 22:13:00,
2013-04-28 15:28:00,56.1,29.0,30.04,WNW,294,5.0,13.0,35,0.00,,,0.00,weatherlink.com 1.10,2013-04-28 22:28:00,
2013-04-28 15:43:00,56.0,29.0,30.05,NNW,339,4.0,12.0,35,0.00,,,0.00,weatherlink.com 1.10,2013-04-28 22:43:00,
2013-04-28 15:58:00,56.1,31.0,30.05,WNW,295,6.0,18.0,38,0.00,,,0.00,weatherlink.com 1.10,2013-04-28 22:58:00,
2013-04-28 16:13:00,56.2,30.0,30.05,NW,318,5.0,14.0,37,0.00,,,0.00,weatherlink.com 1.10,2013-04-28 23:13:00,
2013-04-28 16:28:00,55.8,29.0,30.04,WNW,303,4.0,14.0,36,0.00,,,0.00,weatherlink.com 1.10,2013-04-28 23:28:00,
2013-04-28 16:43:00,56.9,29.0,30.04,NNW,327,5.0,14.0,35,0.00,,,0.00,weatherlink.com 1.10,2013-04-28 23:43:00,
2013-04-28 16:58:00,56.9,28.0,30.03,WNW,293,4.0,14.0,33,0.00,,,0.00,weatherlink.com 1.10,2013-04-28 23:58:00,
2013-04-28 17:13:00,57.7,27.0,30.03,WNW,293,5.0,13.0,31,0.00,,,0.00,weatherlink.com 1.10,2013-04-29 00:13:00,
2013-04-28 17:28:00,55.5,26.0,30.03,WNW,301,7.0,12.0,32,0.00,,,0.00,weatherlink.com 1.10,2013-04-29 00:28:00,
2013-04-28 17:43:00,54.7,26.0,30.04,NW,312,5.0,14.0,33,0.00,,,0.00,weatherlink.com 1.10,2013-04-29 00:43:00,
2013-04-28 17:58:00,54.1,26.0,30.03,NW,316,4.0,10.0,34,0.00,,,0.00,weatherlink.com 1.10,2013-04-29 00:58:00,
2013-04-28 18:13:00,53.7,27.0,30.03,NW,308,3.0,8.0,36,0.00,,,0.00,weatherlink.com 1.10,2013-04-29 01:13:00,
2013-04-28 18:28:00,54.1,27.0,30.02,NW,321,2.0,9.0,36,0.00,,,0.00,weatherlink.com 1.10,2013-04-29 01:28:00,
2013-04-28 18:43:00,55.7,30.0,30.03,West,280,8.0,13.0,37,0.00,,,0.00,weatherlink.com 1.10,2013-04-29 01:43:00,
2013-04-28 18:58:00,53.9,29.0,30.02,WNW,295,4.0,10.0,38,0.00,,,0.00,weatherlink.com 1.10,2013-04-29 01:58:00,
2013-04-28 19:13:00,54.1,27.0,30.01,WNW,283,4.0,12.0,35,0.00,,,0.00,weatherlink.com 1.10,2013-04-29 02:13:00,
2013-04-28 19:28:00,53.3,26.0,30.02,WSW,238,6.0,12.0,35,0.00,,,0.00,weatherlink.com 1.10,2013-04-29 02:28:00,
2013-04-28 19:43:00,52.2,29.0,30.02,NNW,328,3.0,9.0,41,0.00,,,0.00,weatherlink.com 1.10,2013-04-29 02:43:00,
2013-04-28 19:58:00,50.4,28.0,30.02,SW,236,5.0,6.0,42,0.00,,,0.00,weatherlink.com 1.10,2013-04-29 02:58:00,
2013-04-28 20:14:00,49.2,26.0,30.01,West,271,0.0,6.0,41,0.00,,,0.00,weatherlink.com 1.10,2013-04-29 03:14:00,
2013-04-28 20:29:00,48.4,26.0,30.02,WNW,295,2.0,4.0,42,0.00,,,0.00,weatherlink.com 1.10,2013-04-29 03:29:00,
2013-04-28 20:44:00,47.8,27.0,30.02,SW,225,1.0,4.0,44,0.00,,,0.00,weatherlink.com 1.10,2013-04-29 03:44:00,
2013-04-28 20:59:00,47.2,27.0,30.03,SW,228,0.0,2.0,46,0.00,,,0.00,weatherlink.com 1.10,2013-04-29 03:59:00,
2013-04-28 21:14:00,46.6,28.0,30.02,SSE,155,1.0,3.0,49,0.00,,,0.00,weatherlink.com 1.10,2013-04-29 04:14:00,
2013-04-28 21:29:00,46.8,30.0,30.02,SSW,194,3.0,5.0,52,0.00,,,0.00,weatherlink.com 1.10,2013-04-29 04:29:00,
2013-04-28 21:44:00,46.8,31.0,30.02,South,187,3.0,7.0,54,0.00,,,0.00,weatherlink.com 1.10,2013-04-29 04:44:00,
2013-04-28 21:59:00,46.9,31.0,30.01,NW,325,1.0,6.0,54,0.00,,,0.00,weatherlink.com 1.10,2013-04-29 04:59:00,
2013-04-28 22:14:00,46.5,30.0,30.01,SSE,157,2.0,7.0,54,0.00,,,0.00,weatherlink.com 1.10,2013-04-29 05:14:00,
2013-04-28 22:30:00,46.8,29.0,30.00,West,267,3.0,11.0,51,0.00,,,0.00,weatherlink.com 1.10,2013-04-29 05:30:00,
2013-04-28 22:44:00,47.5,28.0,30.00,WNW,290,3.0,9.0,47,0.00,,,0.00,weatherlink.com 1.10,2013-04-29 05:44:00,
2013-04-28 22:59:00,48.0,28.0,30.00,WSW,240,6.0,13.0,46,0.00,,,0.00,weatherlink.com 1.10,2013-04-29 05:59:00,
2013-04-28 23:14:00,47.4,28.0,29.99,West,274,1.0,5.0,47,0.00,,,0.00,weatherlink.com 1.10,2013-04-29 06:14:00,
2013-04-28 23:29:00,47.4,28.0,29.99,South,191,3.0,7.0,48,0.00,,,0.00,weatherlink.com 1.10,2013-04-29 06:29:00,
2013-04-28 23:44:00,48.1,30.0,29.99,SW,218,5.0,13.0,50,0.00,,,0.00,weatherlink.com 1.10,2013-04-29 06:44:00,
2013-04-28 23:59:00,48.0,30.0,29.99,SSW,198,4.0,13.0,51,0.00,,,0.00,weatherlink.com 1.10,2013-04-29 06:59:00,